sensor_id;sensor_type;location;lat;lon;timestamp;P1;durP1;ratioP1;P2;durP2;ratioP2
38025;SDS011;23836;48.430;9.888;2022-09-09T00:09:03;2.75;;;1.38;;
38025;SDS011;23836;48.430;9.888;2022-09-09T00:14:03;5.43;;;1.50;;
38025;SDS011;23836;48.430;9.888;2022-09-09T00:23:54;3.80;;;1.58;;
38025;SDS011;23836;48.430;9.888;2022-09-09T00:34:15;7.28;;;1.45;;
38025;SDS011;23836;48.430;9.888;2022-09-09T00:39:13;2.90;;;1.30;;
38025;SDS011;23836;48.430;9.888;2022-09-09T00:44:32;4.22;;;1.52;;
38025;SDS011;23836;48.430;9.888;2022-09-09T00:59:50;4.80;;;1.50;;
38025;SDS011;23836;48.430;9.888;2022-09-09T01:04:44;5.70;;;1.40;;
38025;SDS011;23836;48.430;9.888;2022-09-09T01:09:42;4.10;;;1.55;;
38025;SDS011;23836;48.430;9.888;2022-09-09T01:14:47;2.20;;;1.40;;
38025;SDS011;23836;48.430;9.888;2022-09-09T01:19:48;8.90;;;1.63;;
38025;SDS011;23836;48.430;9.888;2022-09-09T01:30:12;2.80;;;1.50;;
38025;SDS011;23836;48.430;9.888;2022-09-09T01:35:15;7.43;;;1.75;;
38025;SDS011;23836;48.430;9.888;2022-09-09T01:40:27;1.45;;;1.35;;
38025;SDS011;23836;48.430;9.888;2022-09-09T01:45:19;4.13;;;1.45;;
38025;SDS011;23836;48.430;9.888;2022-09-09T01:50:12;5.80;;;1.30;;
38025;SDS011;23836;48.430;9.888;2022-09-09T01:55:06;4.95;;;1.77;;
38025;SDS011;23836;48.430;9.888;2022-09-09T02:00:01;2.88;;;1.40;;
38025;SDS011;23836;48.430;9.888;2022-09-09T02:10:05;4.43;;;1.60;;
38025;SDS011;23836;48.430;9.888;2022-09-09T02:15:23;1.95;;;1.30;;
38025;SDS011;23836;48.430;9.888;2022-09-09T02:20:16;1.98;;;1.50;;
38025;SDS011;23836;48.430;9.888;2022-09-09T02:25:10;4.43;;;1.30;;
38025;SDS011;23836;48.430;9.888;2022-09-09T02:30:05;4.32;;;1.40;;
38025;SDS011;23836;48.430;9.888;2022-09-09T02:35:16;3.60;;;1.70;;
38025;SDS011;23836;48.430;9.888;2022-09-09T02:40:11;2.28;;;1.40;;
38025;SDS011;23836;48.430;9.888;2022-09-09T02:45:05;4.32;;;1.33;;
38025;SDS011;23836;48.430;9.888;2022-09-09T02:54:57;3.20;;;1.50;;
38025;SDS011;23836;48.430;9.888;2022-09-09T02:59:56;1.87;;;1.47;;
38025;SDS011;23836;48.430;9.888;2022-09-09T03:04:51;1.63;;;1.38;;
38025;SDS011;23836;48.430;9.888;2022-09-09T03:09:42;1.45;;;1.05;;
38025;SDS011;23836;48.430;9.888;2022-09-09T03:14:34;1.20;;;1.10;;
38025;SDS011;23836;48.430;9.888;2022-09-09T03:19:25;4.70;;;1.20;;
38025;SDS011;23836;48.430;9.888;2022-09-09T03:24:15;3.85;;;1.23;;
38025;SDS011;23836;48.430;9.888;2022-09-09T03:29:06;3.35;;;1.30;;
38025;SDS011;23836;48.430;9.888;2022-09-09T03:33:57;5.35;;;1.77;;
38025;SDS011;23836;48.430;9.888;2022-09-09T03:38:48;3.28;;;1.42;;
38025;SDS011;23836;48.430;9.888;2022-09-09T03:43:38;5.75;;;1.60;;
38025;SDS011;23836;48.430;9.888;2022-09-09T03:48:29;4.55;;;1.90;;
38025;SDS011;23836;48.430;9.888;2022-09-09T03:53:20;3.63;;;1.55;;
38025;SDS011;23836;48.430;9.888;2022-09-09T03:58:13;2.70;;;1.70;;
38025;SDS011;23836;48.430;9.888;2022-09-09T04:03:09;3.80;;;1.40;;
38025;SDS011;23836;48.430;9.888;2022-09-09T04:08:01;4.03;;;1.83;;
38025;SDS011;23836;48.430;9.888;2022-09-09T04:12:51;6.85;;;1.95;;
38025;SDS011;23836;48.430;9.888;2022-09-09T04:17:42;4.88;;;1.40;;
38025;SDS011;23836;48.430;9.888;2022-09-09T04:22:33;8.70;;;1.63;;
38025;SDS011;23836;48.430;9.888;2022-09-09T04:27:24;1.45;;;1.27;;
38025;SDS011;23836;48.430;9.888;2022-09-09T04:32:15;4.93;;;1.63;;
38025;SDS011;23836;48.430;9.888;2022-09-09T04:37:07;3.47;;;1.10;;
38025;SDS011;23836;48.430;9.888;2022-09-09T04:41:59;3.60;;;1.17;;
38025;SDS011;23836;48.430;9.888;2022-09-09T04:46:50;2.10;;;1.58;;
38025;SDS011;23836;48.430;9.888;2022-09-09T04:51:40;6.23;;;1.83;;
38025;SDS011;23836;48.430;9.888;2022-09-09T04:56:31;5.55;;;1.60;;
38025;SDS011;23836;48.430;9.888;2022-09-09T05:01:21;3.00;;;1.17;;
38025;SDS011;23836;48.430;9.888;2022-09-09T05:06:14;2.85;;;1.67;;
38025;SDS011;23836;48.430;9.888;2022-09-09T05:16:13;2.50;;;1.63;;
38025;SDS011;23836;48.430;9.888;2022-09-09T05:21:04;10.52;;;1.85;;
38025;SDS011;23836;48.430;9.888;2022-09-09T05:25:56;5.07;;;1.50;;
38025;SDS011;23836;48.430;9.888;2022-09-09T05:30:54;4.60;;;1.50;;
38025;SDS011;23836;48.430;9.888;2022-09-09T05:58:55;3.17;;;1.70;;
38025;SDS011;23836;48.430;9.888;2022-09-09T06:03:46;5.68;;;1.50;;
38025;SDS011;23836;48.430;9.888;2022-09-09T06:14:24;2.35;;;1.40;;
38025;SDS011;23836;48.430;9.888;2022-09-09T06:19:18;11.27;;;1.73;;
38025;SDS011;23836;48.430;9.888;2022-09-09T06:35:50;6.40;;;1.10;;
38025;SDS011;23836;48.430;9.888;2022-09-09T07:26:57;5.70;;;1.40;;
38025;SDS011;23836;48.430;9.888;2022-09-09T07:31:47;2.45;;;1.50;;
38025;SDS011;23836;48.430;9.888;2022-09-09T07:36:39;5.53;;;1.92;;
38025;SDS011;23836;48.430;9.888;2022-09-09T07:41:34;5.43;;;1.90;;
38025;SDS011;23836;48.430;9.888;2022-09-09T07:46:33;9.75;;;2.25;;
38025;SDS011;23836;48.430;9.888;2022-09-09T07:51:26;9.30;;;2.13;;
38025;SDS011;23836;48.430;9.888;2022-09-09T07:56:19;6.40;;;2.55;;
38025;SDS011;23836;48.430;9.888;2022-09-09T08:01:15;6.93;;;2.35;;
38025;SDS011;23836;48.430;9.888;2022-09-09T08:06:17;4.60;;;1.73;;
38025;SDS011;23836;48.430;9.888;2022-09-09T08:11:10;3.20;;;1.23;;
38025;SDS011;23836;48.430;9.888;2022-09-09T08:16:08;3.38;;;1.30;;
38025;SDS011;23836;48.430;9.888;2022-09-09T08:21:05;3.83;;;1.08;;
38025;SDS011;23836;48.430;9.888;2022-09-09T08:26:05;6.07;;;1.08;;
38025;SDS011;23836;48.430;9.888;2022-09-09T08:31:05;1.77;;;1.05;;
38025;SDS011;23836;48.430;9.888;2022-09-09T08:40:47;2.80;;;0.77;;
38025;SDS011;23836;48.430;9.888;2022-09-09T08:45:52;6.72;;;1.55;;
38025;SDS011;23836;48.430;9.888;2022-09-09T08:50:51;7.27;;;1.00;;
38025;SDS011;23836;48.430;9.888;2022-09-09T08:55:45;5.90;;;1.10;;
38025;SDS011;23836;48.430;9.888;2022-09-09T09:00:41;8.27;;;3.53;;
38025;SDS011;23836;48.430;9.888;2022-09-09T09:10:50;8.60;;;3.42;;
38025;SDS011;23836;48.430;9.888;2022-09-09T09:15:44;6.82;;;2.22;;
38025;SDS011;23836;48.430;9.888;2022-09-09T09:25:58;3.67;;;1.30;;
38025;SDS011;23836;48.430;9.888;2022-09-09T09:31:09;2.65;;;1.52;;
38025;SDS011;23836;48.430;9.888;2022-09-09T09:36:01;3.80;;;1.27;;
38025;SDS011;23836;48.430;9.888;2022-09-09T09:40:57;9.18;;;1.27;;
38025;SDS011;23836;48.430;9.888;2022-09-09T09:45:48;10.23;;;1.52;;
38025;SDS011;23836;48.430;9.888;2022-09-09T09:50:49;2.78;;;1.13;;
38025;SDS011;23836;48.430;9.888;2022-09-09T09:55:46;12.73;;;1.88;;
38025;SDS011;23836;48.430;9.888;2022-09-09T10:00:50;10.88;;;1.50;;
38025;SDS011;23836;48.430;9.888;2022-09-09T10:05:44;3.47;;;0.75;;
38025;SDS011;23836;48.430;9.888;2022-09-09T10:10:41;4.30;;;0.70;;
38025;SDS011;23836;48.430;9.888;2022-09-09T10:36:49;5.20;;;0.93;;
38025;SDS011;23836;48.430;9.888;2022-09-09T10:57:08;5.50;;;0.90;;
38025;SDS011;23836;48.430;9.888;2022-09-09T11:02:26;2.67;;;0.70;;
38025;SDS011;23836;48.430;9.888;2022-09-09T11:07:49;1.63;;;0.73;;
38025;SDS011;23836;48.430;9.888;2022-09-09T11:12:44;5.65;;;0.85;;
38025;SDS011;23836;48.430;9.888;2022-09-09T11:17:49;2.70;;;0.60;;
38025;SDS011;23836;48.430;9.888;2022-09-09T11:57:34;4.05;;;0.80;;
38025;SDS011;23836;48.430;9.888;2022-09-09T12:02:27;2.92;;;0.77;;
38025;SDS011;23836;48.430;9.888;2022-09-09T12:18:41;6.03;;;1.07;;
38025;SDS011;23836;48.430;9.888;2022-09-09T12:46:26;9.63;;;0.80;;
38025;SDS011;23836;48.430;9.888;2022-09-09T12:57:11;2.45;;;0.82;;
38025;SDS011;23836;48.430;9.888;2022-09-09T13:07:42;2.22;;;0.70;;
38025;SDS011;23836;48.430;9.888;2022-09-09T13:13:38;1.55;;;0.75;;
38025;SDS011;23836;48.430;9.888;2022-09-09T13:18:37;1.63;;;0.68;;
38025;SDS011;23836;48.430;9.888;2022-09-09T13:23:47;0.88;;;0.55;;
38025;SDS011;23836;48.430;9.888;2022-09-09T13:28:45;3.22;;;0.82;;
38025;SDS011;23836;48.430;9.888;2022-09-09T13:33:38;4.35;;;0.70;;
38025;SDS011;23836;48.430;9.888;2022-09-09T13:38:36;9.27;;;1.30;;
38025;SDS011;23836;48.430;9.888;2022-09-09T13:49:36;1.58;;;0.70;;
38025;SDS011;23836;48.430;9.888;2022-09-09T13:54:50;6.90;;;1.20;;
38025;SDS011;23836;48.430;9.888;2022-09-09T14:04:59;3.63;;;0.85;;
38025;SDS011;23836;48.430;9.888;2022-09-09T14:09:52;6.22;;;0.88;;
38025;SDS011;23836;48.430;9.888;2022-09-09T14:32:11;7.80;;;0.80;;
38025;SDS011;23836;48.430;9.888;2022-09-09T14:43:04;1.25;;;0.55;;
38025;SDS011;23836;48.430;9.888;2022-09-09T15:34:19;2.15;;;0.57;;
38025;SDS011;23836;48.430;9.888;2022-09-09T15:51:03;1.80;;;0.40;;
38025;SDS011;23836;48.430;9.888;2022-09-09T16:01:30;2.65;;;1.00;;
38025;SDS011;23836;48.430;9.888;2022-09-09T16:17:55;3.67;;;0.60;;
38025;SDS011;23836;48.430;9.888;2022-09-09T16:34:44;3.58;;;1.35;;
38025;SDS011;23836;48.430;9.888;2022-09-09T16:50:41;4.25;;;0.88;;
38025;SDS011;23836;48.430;9.888;2022-09-09T17:01:35;1.08;;;0.52;;
38025;SDS011;23836;48.430;9.888;2022-09-09T17:06:28;2.65;;;0.55;;
38025;SDS011;23836;48.430;9.888;2022-09-09T17:18:01;7.88;;;0.82;;
38025;SDS011;23836;48.430;9.888;2022-09-09T17:34:25;1.25;;;0.70;;
38025;SDS011;23836;48.430;9.888;2022-09-09T17:50:56;4.10;;;0.77;;
38025;SDS011;23836;48.430;9.888;2022-09-09T18:59:00;1.45;;;0.68;;
38025;SDS011;23836;48.430;9.888;2022-09-09T19:09:39;2.03;;;1.00;;
38025;SDS011;23836;48.430;9.888;2022-09-09T19:14:30;2.15;;;0.90;;
38025;SDS011;23836;48.430;9.888;2022-09-09T19:30:55;1.67;;;0.70;;
38025;SDS011;23836;48.430;9.888;2022-09-09T19:41:38;1.13;;;1.00;;
38025;SDS011;23836;48.430;9.888;2022-09-09T20:09:36;2.53;;;1.55;;
38025;SDS011;23836;48.430;9.888;2022-09-09T20:14:30;1.33;;;0.80;;
38025;SDS011;23836;48.430;9.888;2022-09-09T20:19:22;1.98;;;1.00;;
38025;SDS011;23836;48.430;9.888;2022-09-09T20:24:16;1.45;;;1.00;;
38025;SDS011;23836;48.430;9.888;2022-09-09T20:29:17;2.25;;;0.70;;
38025;SDS011;23836;48.430;9.888;2022-09-09T20:34:20;8.02;;;1.10;;
38025;SDS011;23836;48.430;9.888;2022-09-09T20:39:16;2.42;;;0.80;;
38025;SDS011;23836;48.430;9.888;2022-09-09T20:44:16;3.15;;;0.95;;
38025;SDS011;23836;48.430;9.888;2022-09-09T21:06:40;1.20;;;0.90;;
38025;SDS011;23836;48.430;9.888;2022-09-09T21:11:30;5.85;;;1.25;;
38025;SDS011;23836;48.430;9.888;2022-09-09T21:16:22;4.15;;;1.50;;
38025;SDS011;23836;48.430;9.888;2022-09-09T21:21:14;2.65;;;1.40;;
38025;SDS011;23836;48.430;9.888;2022-09-09T21:26:13;4.63;;;1.23;;
38025;SDS011;23836;48.430;9.888;2022-09-09T21:31:04;2.65;;;1.48;;
38025;SDS011;23836;48.430;9.888;2022-09-09T21:47:29;2.85;;;1.38;;
38025;SDS011;23836;48.430;9.888;2022-09-09T21:52:20;3.95;;;0.95;;
38025;SDS011;23836;48.430;9.888;2022-09-09T21:57:26;6.45;;;1.20;;
38025;SDS011;23836;48.430;9.888;2022-09-09T22:02:17;2.92;;;1.33;;
38025;SDS011;23836;48.430;9.888;2022-09-09T22:07:11;8.70;;;1.17;;
38025;SDS011;23836;48.430;9.888;2022-09-09T22:23:40;2.35;;;1.20;;
38025;SDS011;23836;48.430;9.888;2022-09-09T22:28:32;4.15;;;1.00;;
38025;SDS011;23836;48.430;9.888;2022-09-09T22:33:24;1.75;;;0.73;;
38025;SDS011;23836;48.430;9.888;2022-09-09T22:38:16;3.95;;;1.23;;
38025;SDS011;23836;48.430;9.888;2022-09-09T22:43:12;2.08;;;1.20;;
38025;SDS011;23836;48.430;9.888;2022-09-09T22:48:05;4.17;;;1.20;;
38025;SDS011;23836;48.430;9.888;2022-09-09T22:52:57;2.85;;;1.23;;
38025;SDS011;23836;48.430;9.888;2022-09-09T22:57:48;13.07;;;1.60;;
38025;SDS011;23836;48.430;9.888;2022-09-09T23:02:40;1.50;;;0.90;;
38025;SDS011;23836;48.430;9.888;2022-09-09T23:07:30;2.17;;;1.00;;
38025;SDS011;23836;48.430;9.888;2022-09-09T23:12:21;3.90;;;1.33;;
38025;SDS011;23836;48.430;9.888;2022-09-09T23:17:14;3.10;;;1.17;;
38025;SDS011;23836;48.430;9.888;2022-09-09T23:22:05;4.20;;;1.30;;
38025;SDS011;23836;48.430;9.888;2022-09-09T23:26:56;6.05;;;1.30;;
38025;SDS011;23836;48.430;9.888;2022-09-09T23:31:47;3.45;;;1.30;;
38025;SDS011;23836;48.430;9.888;2022-09-09T23:36:38;16.50;;;1.25;;
38025;SDS011;23836;48.430;9.888;2022-09-09T23:41:30;1.58;;;1.48;;
38025;SDS011;23836;48.430;9.888;2022-09-09T23:46:24;1.85;;;1.42;;
38025;SDS011;23836;48.430;9.888;2022-09-09T23:51:19;5.90;;;1.20;;
38025;SDS011;23836;48.430;9.888;2022-09-09T23:56:12;2.95;;;1.35;;
